sensor_id;sensor_type;location;lat;lon;timestamp;temperature;humidity
47521;DHT22;32291;52.010;4.446;2022-11-15T00:01:11;7.30;99.90
47521;DHT22;32291;52.010;4.446;2022-11-15T00:02:24;7.30;99.90
47521;DHT22;32291;52.010;4.446;2022-11-15T00:03:32;7.30;99.90
47521;DHT22;32291;52.010;4.446;2022-11-15T00:04:39;7.40;99.90
47521;DHT22;32291;52.010;4.446;2022-11-15T00:05:42;7.30;99.90
47521;DHT22;32291;52.010;4.446;2022-11-15T00:06:51;7.30;99.90
47521;DHT22;32291;52.010;4.446;2022-11-15T00:07:58;7.40;99.90
47521;DHT22;32291;52.010;4.446;2022-11-15T00:09:00;7.40;99.90
47521;DHT22;32291;52.010;4.446;2022-11-15T00:10:08;7.40;99.90
47521;DHT22;32291;52.010;4.446;2022-11-15T00:11:16;7.50;99.90
47521;DHT22;32291;52.010;4.446;2022-11-15T00:12:23;7.40;99.90
47521;DHT22;32291;52.010;4.446;2022-11-15T00:13:26;7.40;99.90
47521;DHT22;32291;52.010;4.446;2022-11-15T00:14:29;7.30;99.90
47521;DHT22;32291;52.010;4.446;2022-11-15T00:15:37;7.40;99.90
47521;DHT22;32291;52.010;4.446;2022-11-15T00:16:41;7.30;99.90
47521;DHT22;32291;52.010;4.446;2022-11-15T00:17:43;7.50;99.90
47521;DHT22;32291;52.010;4.446;2022-11-15T00:18:50;7.30;99.90
47521;DHT22;32291;52.010;4.446;2022-11-15T00:19:58;7.30;99.90
47521;DHT22;32291;52.010;4.446;2022-11-15T00:21:10;7.40;99.90
47521;DHT22;32291;52.010;4.446;2022-11-15T00:22:19;7.40;99.90
47521;DHT22;32291;52.010;4.446;2022-11-15T00:23:26;7.50;99.90
47521;DHT22;32291;52.010;4.446;2022-11-15T00:24:33;7.40;99.90
47521;DHT22;32291;52.010;4.446;2022-11-15T00:25:41;7.40;99.90
47521;DHT22;32291;52.010;4.446;2022-11-15T00:26:48;7.50;99.90
47521;DHT22;32291;52.010;4.446;2022-11-15T00:27:56;7.50;99.90
47521;DHT22;32291;52.010;4.446;2022-11-15T00:29:05;7.60;99.90
47521;DHT22;32291;52.010;4.446;2022-11-15T00:30:12;7.50;99.90
47521;DHT22;32291;52.010;4.446;2022-11-15T00:31:19;7.60;99.90
47521;DHT22;32291;52.010;4.446;2022-11-15T00:32:30;7.50;99.90
47521;DHT22;32291;52.010;4.446;2022-11-15T00:33:33;7.50;99.90
47521;DHT22;32291;52.010;4.446;2022-11-15T00:34:36;7.50;99.90
47521;DHT22;32291;52.010;4.446;2022-11-15T00:35:38;7.50;99.90
47521;DHT22;32291;52.010;4.446;2022-11-15T00:36:45;7.50;99.90
47521;DHT22;32291;52.010;4.446;2022-11-15T00:37:48;7.50;99.90
47521;DHT22;32291;52.010;4.446;2022-11-15T00:38:55;7.60;99.90
47521;DHT22;32291;52.010;4.446;2022-11-15T00:40:02;7.60;99.90
47521;DHT22;32291;52.010;4.446;2022-11-15T00:41:10;7.70;99.90
47521;DHT22;32291;52.010;4.446;2022-11-15T00:42:18;7.70;99.90
47521;DHT22;32291;52.010;4.446;2022-11-15T00:43:26;8.00;99.90
47521;DHT22;32291;52.010;4.446;2022-11-15T00:44:34;7.70;99.90
47521;DHT22;32291;52.010;4.446;2022-11-15T00:45:41;7.70;99.90
47521;DHT22;32291;52.010;4.446;2022-11-15T00:46:43;7.70;99.90
47521;DHT22;32291;52.010;4.446;2022-11-15T00:47:51;7.70;99.90
47521;DHT22;32291;52.010;4.446;2022-11-15T00:48:59;7.70;99.90
47521;DHT22;32291;52.010;4.446;2022-11-15T00:50:01;7.70;99.90
47521;DHT22;32291;52.010;4.446;2022-11-15T00:51:09;7.80;99.90
47521;DHT22;32291;52.010;4.446;2022-11-15T00:52:16;7.90;99.90
47521;DHT22;32291;52.010;4.446;2022-11-15T00:53:24;7.80;99.90
47521;DHT22;32291;52.010;4.446;2022-11-15T00:54:31;7.90;99.90
47521;DHT22;32291;52.010;4.446;2022-11-15T00:55:38;7.80;99.90
47521;DHT22;32291;52.010;4.446;2022-11-15T00:56:40;7.80;99.90
47521;DHT22;32291;52.010;4.446;2022-11-15T00:57:43;7.70;99.90
47521;DHT22;32291;52.010;4.446;2022-11-15T00:58:55;7.80;99.90
47521;DHT22;32291;52.010;4.446;2022-11-15T01:00:02;7.80;99.90
47521;DHT22;32291;52.010;4.446;2022-11-15T01:01:07;7.90;99.90
47521;DHT22;32291;52.010;4.446;2022-11-15T01:02:17;7.90;99.90
47521;DHT22;32291;52.010;4.446;2022-11-15T01:03:24;7.90;99.90
47521;DHT22;32291;52.010;4.446;2022-11-15T01:04:26;7.90;99.90
47521;DHT22;32291;52.010;4.446;2022-11-15T01:05:29;7.90;99.90
47521;DHT22;32291;52.010;4.446;2022-11-15T01:06:36;7.90;99.90
47521;DHT22;32291;52.010;4.446;2022-11-15T01:07:38;7.90;99.90
47521;DHT22;32291;52.010;4.446;2022-11-15T01:08:46;7.90;99.90
47521;DHT22;32291;52.010;4.446;2022-11-15T01:09:53;7.90;99.90
47521;DHT22;32291;52.010;4.446;2022-11-15T01:11:07;7.90;99.90
47521;DHT22;32291;52.010;4.446;2022-11-15T01:12:18;8.00;99.90
47521;DHT22;32291;52.010;4.446;2022-11-15T01:13:25;7.90;99.90
47521;DHT22;32291;52.010;4.446;2022-11-15T01:14:32;7.90;99.90
47521;DHT22;32291;52.010;4.446;2022-11-15T01:15:38;7.90;99.90
47521;DHT22;32291;52.010;4.446;2022-11-15T01:16:47;8.00;99.90
47521;DHT22;32291;52.010;4.446;2022-11-15T01:17:54;8.00;99.90
47521;DHT22;32291;52.010;4.446;2022-11-15T01:19:01;8.00;99.90
47521;DHT22;32291;52.010;4.446;2022-11-15T01:20:04;8.00;99.90
47521;DHT22;32291;52.010;4.446;2022-11-15T01:21:14;8.00;99.90
47521;DHT22;32291;52.010;4.446;2022-11-15T01:22:25;8.30;99.90
47521;DHT22;32291;52.010;4.446;2022-11-15T01:23:28;8.10;99.90
47521;DHT22;32291;52.010;4.446;2022-11-15T01:24:35;8.00;99.90
47521;DHT22;32291;52.010;4.446;2022-11-15T01:25:42;8.10;99.90
47521;DHT22;32291;52.010;4.446;2022-11-15T01:26:49;8.10;99.90
47521;DHT22;32291;52.010;4.446;2022-11-15T01:27:57;8.10;99.90
47521;DHT22;32291;52.010;4.446;2022-11-15T01:29:04;8.10;99.90
47521;DHT22;32291;52.010;4.446;2022-11-15T01:30:11;8.00;99.90
47521;DHT22;32291;52.010;4.446;2022-11-15T01:31:20;8.10;99.90
47521;DHT22;32291;52.010;4.446;2022-11-15T01:32:23;8.40;99.90
47521;DHT22;32291;52.010;4.446;2022-11-15T01:33:33;8.00;99.90
47521;DHT22;32291;52.010;4.446;2022-11-15T01:34:38;8.10;99.90
47521;DHT22;32291;52.010;4.446;2022-11-15T01:35:45;8.20;99.90
47521;DHT22;32291;52.010;4.446;2022-11-15T01:36:55;8.20;99.90
47521;DHT22;32291;52.010;4.446;2022-11-15T01:38:02;8.10;99.90
47521;DHT22;32291;52.010;4.446;2022-11-15T01:39:09;8.20;99.90
47521;DHT22;32291;52.010;4.446;2022-11-15T01:40:17;8.20;99.90
47521;DHT22;32291;52.010;4.446;2022-11-15T01:41:30;8.20;99.90
47521;DHT22;32291;52.010;4.446;2022-11-15T01:42:39;8.20;99.90
47521;DHT22;32291;52.010;4.446;2022-11-15T01:43:52;8.50;99.90
47521;DHT22;32291;52.010;4.446;2022-11-15T01:45:02;8.10;99.90
47521;DHT22;32291;52.010;4.446;2022-11-15T01:46:35;8.10;99.90
47521;DHT22;32291;52.010;4.446;2022-11-15T01:47:42;8.20;99.90
47521;DHT22;32291;52.010;4.446;2022-11-15T01:49:10;8.20;99.90
47521;DHT22;32291;52.010;4.446;2022-11-15T01:50:25;8.10;99.90
47521;DHT22;32291;52.010;4.446;2022-11-15T01:51:33;8.10;99.90
47521;DHT22;32291;52.010;4.446;2022-11-15T01:52:41;8.20;99.90
47521;DHT22;32291;52.010;4.446;2022-11-15T01:53:46;8.30;99.90
47521;DHT22;32291;52.010;4.446;2022-11-15T01:55:08;8.30;99.90
47521;DHT22;32291;52.010;4.446;2022-11-15T01:56:30;8.30;99.90
47521;DHT22;32291;52.010;4.446;2022-11-15T01:57:47;8.40;99.90
47521;DHT22;32291;52.010;4.446;2022-11-15T01:59:03;8.40;99.90
47521;DHT22;32291;52.010;4.446;2022-11-15T02:00:15;8.40;99.90
47521;DHT22;32291;52.010;4.446;2022-11-15T02:01:19;8.40;99.90
47521;DHT22;32291;52.010;4.446;2022-11-15T02:02:26;8.40;99.90
47521;DHT22;32291;52.010;4.446;2022-11-15T02:04:05;8.50;99.90
47521;DHT22;32291;52.010;4.446;2022-11-15T02:05:22;8.50;99.90
47521;DHT22;32291;52.010;4.446;2022-11-15T02:06:30;8.50;99.90
47521;DHT22;32291;52.010;4.446;2022-11-15T02:07:35;8.60;99.90
47521;DHT22;32291;52.010;4.446;2022-11-15T02:08:43;8.60;99.90
47521;DHT22;32291;52.010;4.446;2022-11-15T02:09:46;8.60;99.90
47521;DHT22;32291;52.010;4.446;2022-11-15T02:10:55;8.70;99.90
47521;DHT22;32291;52.010;4.446;2022-11-15T02:12:03;8.70;99.90
47521;DHT22;32291;52.010;4.446;2022-11-15T02:13:13;8.80;99.90
47521;DHT22;32291;52.010;4.446;2022-11-15T02:14:23;8.80;99.90
47521;DHT22;32291;52.010;4.446;2022-11-15T02:15:39;8.80;99.90
47521;DHT22;32291;52.010;4.446;2022-11-15T02:18:49;8.90;99.90
47521;DHT22;32291;52.010;4.446;2022-11-15T02:33:02;9.10;99.90
47521;DHT22;32291;52.010;4.446;2022-11-15T02:36:02;9.10;99.90
47521;DHT22;32291;52.010;4.446;2022-11-15T02:37:58;9.10;99.90
47521;DHT22;32291;52.010;4.446;2022-11-15T02:42:09;9.20;99.90
47521;DHT22;32291;52.010;4.446;2022-11-15T02:43:57;9.20;99.90
47521;DHT22;32291;52.010;4.446;2022-11-15T02:45:13;9.20;99.90
47521;DHT22;32291;52.010;4.446;2022-11-15T02:46:51;9.30;99.90
47521;DHT22;32291;52.010;4.446;2022-11-15T02:48:20;9.30;99.90
47521;DHT22;32291;52.010;4.446;2022-11-15T02:49:33;9.30;99.90
47521;DHT22;32291;52.010;4.446;2022-11-15T02:50:38;9.30;99.90
47521;DHT22;32291;52.010;4.446;2022-11-15T02:51:47;9.40;99.90
47521;DHT22;32291;52.010;4.446;2022-11-15T02:52:57;9.60;99.90
47521;DHT22;32291;52.010;4.446;2022-11-15T02:54:05;9.40;99.90
47521;DHT22;32291;52.010;4.446;2022-11-15T02:55:31;9.30;99.90
47521;DHT22;32291;52.010;4.446;2022-11-15T02:56:46;9.30;99.90
47521;DHT22;32291;52.010;4.446;2022-11-15T03:01:31;9.30;99.90
47521;DHT22;32291;52.010;4.446;2022-11-15T03:03:08;9.40;99.90
47521;DHT22;32291;52.010;4.446;2022-11-15T03:07:03;9.40;99.90
47521;DHT22;32291;52.010;4.446;2022-11-15T03:08:31;9.40;99.90
47521;DHT22;32291;52.010;4.446;2022-11-15T03:09:55;9.40;99.90
47521;DHT22;32291;52.010;4.446;2022-11-15T03:11:24;9.40;99.90
47521;DHT22;32291;52.010;4.446;2022-11-15T03:14:32;9.50;99.90
47521;DHT22;32291;52.010;4.446;2022-11-15T03:17:30;9.60;99.90
47521;DHT22;32291;52.010;4.446;2022-11-15T03:18:54;9.70;99.90
47521;DHT22;32291;52.010;4.446;2022-11-15T03:20:09;9.70;99.90
47521;DHT22;32291;52.010;4.446;2022-11-15T03:21:18;9.70;99.90
47521;DHT22;32291;52.010;4.446;2022-11-15T03:22:34;9.70;99.90
47521;DHT22;32291;52.010;4.446;2022-11-15T03:23:47;9.70;99.90
47521;DHT22;32291;52.010;4.446;2022-11-15T03:24:57;9.70;99.90
47521;DHT22;32291;52.010;4.446;2022-11-15T03:26:12;9.70;99.90
47521;DHT22;32291;52.010;4.446;2022-11-15T03:27:28;9.70;99.90
47521;DHT22;32291;52.010;4.446;2022-11-15T03:28:44;9.70;99.90
47521;DHT22;32291;52.010;4.446;2022-11-15T03:30:02;9.80;99.90
47521;DHT22;32291;52.010;4.446;2022-11-15T03:31:16;9.80;99.90
47521;DHT22;32291;52.010;4.446;2022-11-15T03:32:54;9.80;99.90
47521;DHT22;32291;52.010;4.446;2022-11-15T03:34:08;9.80;99.90
47521;DHT22;32291;52.010;4.446;2022-11-15T03:35:44;9.80;99.90
47521;DHT22;32291;52.010;4.446;2022-11-15T03:36:55;9.80;99.90
47521;DHT22;32291;52.010;4.446;2022-11-15T03:39:32;9.90;99.90
47521;DHT22;32291;52.010;4.446;2022-11-15T03:40:45;9.90;99.90
47521;DHT22;32291;52.010;4.446;2022-11-15T03:45:22;9.90;99.90
47521;DHT22;32291;52.010;4.446;2022-11-15T03:49:10;10.00;99.90
47521;DHT22;32291;52.010;4.446;2022-11-15T03:50:19;10.00;99.90
47521;DHT22;32291;52.010;4.446;2022-11-15T03:51:31;10.00;99.90
47521;DHT22;32291;52.010;4.446;2022-11-15T03:52:40;10.00;99.90
47521;DHT22;32291;52.010;4.446;2022-11-15T03:53:44;10.10;99.90
47521;DHT22;32291;52.010;4.446;2022-11-15T03:54:56;10.20;99.90
47521;DHT22;32291;52.010;4.446;2022-11-15T03:56:08;10.10;99.90
47521;DHT22;32291;52.010;4.446;2022-11-15T03:57:15;10.10;99.90
47521;DHT22;32291;52.010;4.446;2022-11-15T03:58:22;10.20;99.90
47521;DHT22;32291;52.010;4.446;2022-11-15T03:59:29;10.00;99.90
47521;DHT22;32291;52.010;4.446;2022-11-15T04:00:36;10.10;99.90
47521;DHT22;32291;52.010;4.446;2022-11-15T04:01:44;10.30;99.90
47521;DHT22;32291;52.010;4.446;2022-11-15T04:02:51;10.20;99.90
47521;DHT22;32291;52.010;4.446;2022-11-15T04:03:59;10.20;99.90
47521;DHT22;32291;52.010;4.446;2022-11-15T04:05:06;10.20;99.90
47521;DHT22;32291;52.010;4.446;2022-11-15T04:06:09;10.20;99.90
47521;DHT22;32291;52.010;4.446;2022-11-15T04:07:16;10.20;99.90
47521;DHT22;32291;52.010;4.446;2022-11-15T04:08:23;10.30;99.90
47521;DHT22;32291;52.010;4.446;2022-11-15T04:09:31;10.30;99.90
47521;DHT22;32291;52.010;4.446;2022-11-15T04:10:39;10.50;99.90
47521;DHT22;32291;52.010;4.446;2022-11-15T04:11:46;10.40;99.90
47521;DHT22;32291;52.010;4.446;2022-11-15T04:12:48;10.40;99.90
47521;DHT22;32291;52.010;4.446;2022-11-15T04:13:55;10.30;99.90
47521;DHT22;32291;52.010;4.446;2022-11-15T04:15:08;10.40;99.90
47521;DHT22;32291;52.010;4.446;2022-11-15T04:16:18;10.40;99.90
47521;DHT22;32291;52.010;4.446;2022-11-15T04:17:26;10.40;99.90
47521;DHT22;32291;52.010;4.446;2022-11-15T04:18:33;10.40;99.90
47521;DHT22;32291;52.010;4.446;2022-11-15T04:19:40;10.40;99.90
47521;DHT22;32291;52.010;4.446;2022-11-15T04:21:07;10.40;99.90
47521;DHT22;32291;52.010;4.446;2022-11-15T04:22:33;10.50;99.90
47521;DHT22;32291;52.010;4.446;2022-11-15T04:23:59;10.50;99.90
47521;DHT22;32291;52.010;4.446;2022-11-15T04:25:21;10.40;99.90
47521;DHT22;32291;52.010;4.446;2022-11-15T04:26:28;10.40;99.90
47521;DHT22;32291;52.010;4.446;2022-11-15T04:27:36;10.40;99.90
47521;DHT22;32291;52.010;4.446;2022-11-15T04:28:43;10.40;99.90
47521;DHT22;32291;52.010;4.446;2022-11-15T04:30:09;10.40;99.90
47521;DHT22;32291;52.010;4.446;2022-11-15T04:31:16;10.40;99.90
47521;DHT22;32291;52.010;4.446;2022-11-15T04:32:23;10.40;99.90
47521;DHT22;32291;52.010;4.446;2022-11-15T04:33:31;10.60;99.90
47521;DHT22;32291;52.010;4.446;2022-11-15T04:34:33;10.40;99.90
47521;DHT22;32291;52.010;4.446;2022-11-15T04:35:37;10.40;99.90
47521;DHT22;32291;52.010;4.446;2022-11-15T04:36:44;10.40;99.90
47521;DHT22;32291;52.010;4.446;2022-11-15T04:38:10;10.40;99.90
47521;DHT22;32291;52.010;4.446;2022-11-15T04:39:18;10.50;99.90
47521;DHT22;32291;52.010;4.446;2022-11-15T04:40:25;10.40;99.90
47521;DHT22;32291;52.010;4.446;2022-11-15T04:41:33;10.40;99.90
47521;DHT22;32291;52.010;4.446;2022-11-15T04:42:43;10.40;99.90
47521;DHT22;32291;52.010;4.446;2022-11-15T04:43:45;10.40;99.90
47521;DHT22;32291;52.010;4.446;2022-11-15T04:44:52;10.50;99.90
47521;DHT22;32291;52.010;4.446;2022-11-15T04:46:00;10.40;99.90
47521;DHT22;32291;52.010;4.446;2022-11-15T04:47:07;10.50;99.90
47521;DHT22;32291;52.010;4.446;2022-11-15T04:48:14;10.50;99.90
47521;DHT22;32291;52.010;4.446;2022-11-15T04:49:21;10.60;99.90
47521;DHT22;32291;52.010;4.446;2022-11-15T04:50:29;10.50;99.90
47521;DHT22;32291;52.010;4.446;2022-11-15T04:51:36;10.40;99.90
47521;DHT22;32291;52.010;4.446;2022-11-15T04:52:50;10.50;99.90
47521;DHT22;32291;52.010;4.446;2022-11-15T04:54:00;10.50;99.90
47521;DHT22;32291;52.010;4.446;2022-11-15T04:55:08;10.60;99.90
47521;DHT22;32291;52.010;4.446;2022-11-15T04:56:16;10.50;99.90
47521;DHT22;32291;52.010;4.446;2022-11-15T04:57:24;10.50;99.90
47521;DHT22;32291;52.010;4.446;2022-11-15T04:58:26;10.50;99.90
47521;DHT22;32291;52.010;4.446;2022-11-15T04:59:33;10.50;99.90
47521;DHT22;32291;52.010;4.446;2022-11-15T05:00:40;10.50;99.90
47521;DHT22;32291;52.010;4.446;2022-11-15T05:01:48;10.50;99.90
47521;DHT22;32291;52.010;4.446;2022-11-15T05:02:56;10.60;99.90
47521;DHT22;32291;52.010;4.446;2022-11-15T05:04:22;10.60;99.90
47521;DHT22;32291;52.010;4.446;2022-11-15T05:05:29;10.50;99.90
47521;DHT22;32291;52.010;4.446;2022-11-15T05:06:32;10.90;99.90
47521;DHT22;32291;52.010;4.446;2022-11-15T05:07:39;10.60;99.90
47521;DHT22;32291;52.010;4.446;2022-11-15T05:08:46;10.60;99.90
47521;DHT22;32291;52.010;4.446;2022-11-15T05:09:53;10.60;99.90
47521;DHT22;32291;52.010;4.446;2022-11-15T05:11:00;10.60;99.90
47521;DHT22;32291;52.010;4.446;2022-11-15T05:12:07;10.60;99.90
47521;DHT22;32291;52.010;4.446;2022-11-15T05:13:14;10.70;99.90
47521;DHT22;32291;52.010;4.446;2022-11-15T05:14:22;10.60;99.90
47521;DHT22;32291;52.010;4.446;2022-11-15T05:15:29;10.60;99.90
47521;DHT22;32291;52.010;4.446;2022-11-15T05:16:36;10.70;99.90
47521;DHT22;32291;52.010;4.446;2022-11-15T05:17:43;10.60;99.90
47521;DHT22;32291;52.010;4.446;2022-11-15T05:18:52;10.60;99.90
47521;DHT22;32291;52.010;4.446;2022-11-15T05:20:00;10.70;99.90
47521;DHT22;32291;52.010;4.446;2022-11-15T05:21:10;10.80;99.90
47521;DHT22;32291;52.010;4.446;2022-11-15T05:22:20;10.90;99.90
47521;DHT22;32291;52.010;4.446;2022-11-15T05:23:27;10.70;99.90
47521;DHT22;32291;52.010;4.446;2022-11-15T05:24:34;10.70;99.90
47521;DHT22;32291;52.010;4.446;2022-11-15T05:25:41;10.70;99.90
47521;DHT22;32291;52.010;4.446;2022-11-15T05:26:48;10.70;99.90
47521;DHT22;32291;52.010;4.446;2022-11-15T05:27:56;10.70;99.90
47521;DHT22;32291;52.010;4.446;2022-11-15T05:28:59;10.70;99.90
47521;DHT22;32291;52.010;4.446;2022-11-15T05:30:07;10.70;99.90
47521;DHT22;32291;52.010;4.446;2022-11-15T05:31:15;10.70;99.90
47521;DHT22;32291;52.010;4.446;2022-11-15T05:32:23;10.70;99.90
47521;DHT22;32291;52.010;4.446;2022-11-15T05:33:32;10.60;99.90
47521;DHT22;32291;52.010;4.446;2022-11-15T05:34:37;10.60;99.90
47521;DHT22;32291;52.010;4.446;2022-11-15T05:35:48;10.60;99.90
47521;DHT22;32291;52.010;4.446;2022-11-15T05:36:59;10.60;99.90
47521;DHT22;32291;52.010;4.446;2022-11-15T05:38:01;10.60;99.90
47521;DHT22;32291;52.010;4.446;2022-11-15T05:39:09;10.60;99.90
47521;DHT22;32291;52.010;4.446;2022-11-15T05:40:12;10.90;99.90
47521;DHT22;32291;52.010;4.446;2022-11-15T05:41:20;10.60;99.90
47521;DHT22;32291;52.010;4.446;2022-11-15T05:42:38;10.60;99.90
47521;DHT22;32291;52.010;4.446;2022-11-15T05:43:46;10.60;99.90
47521;DHT22;32291;52.010;4.446;2022-11-15T05:44:52;10.60;99.90
47521;DHT22;32291;52.010;4.446;2022-11-15T05:46:00;10.60;99.90
47521;DHT22;32291;52.010;4.446;2022-11-15T05:47:12;10.60;99.90
47521;DHT22;32291;52.010;4.446;2022-11-15T05:48:29;10.60;99.90
47521;DHT22;32291;52.010;4.446;2022-11-15T05:49:38;10.50;99.90
47521;DHT22;32291;52.010;4.446;2022-11-15T05:50:47;10.80;99.90
47521;DHT22;32291;52.010;4.446;2022-11-15T05:51:54;10.50;99.90
47521;DHT22;32291;52.010;4.446;2022-11-15T05:52:58;10.40;99.90
47521;DHT22;32291;52.010;4.446;2022-11-15T05:54:08;10.40;99.90
47521;DHT22;32291;52.010;4.446;2022-11-15T05:55:17;10.40;99.90
47521;DHT22;32291;52.010;4.446;2022-11-15T05:56:20;10.40;99.90
47521;DHT22;32291;52.010;4.446;2022-11-15T05:57:28;10.40;99.90
47521;DHT22;32291;52.010;4.446;2022-11-15T05:58:36;10.40;99.90
47521;DHT22;32291;52.010;4.446;2022-11-15T05:59:43;10.40;99.90
47521;DHT22;32291;52.010;4.446;2022-11-15T06:00:51;10.40;99.90
47521;DHT22;32291;52.010;4.446;2022-11-15T06:01:53;10.40;99.90
47521;DHT22;32291;52.010;4.446;2022-11-15T06:03:00;10.40;99.90
47521;DHT22;32291;52.010;4.446;2022-11-15T06:04:07;10.40;99.90
47521;DHT22;32291;52.010;4.446;2022-11-15T06:05:14;10.50;99.90
47521;DHT22;32291;52.010;4.446;2022-11-15T06:06:21;10.40;99.90
47521;DHT22;32291;52.010;4.446;2022-11-15T06:07:29;10.40;99.90
47521;DHT22;32291;52.010;4.446;2022-11-15T06:08:37;10.30;99.90
47521;DHT22;32291;52.010;4.446;2022-11-15T06:09:44;10.30;99.90
47521;DHT22;32291;52.010;4.446;2022-11-15T06:10:51;10.30;99.90
47521;DHT22;32291;52.010;4.446;2022-11-15T06:11:58;10.30;99.90
47521;DHT22;32291;52.010;4.446;2022-11-15T06:13:06;10.20;99.90
47521;DHT22;32291;52.010;4.446;2022-11-15T06:14:13;10.20;99.90
47521;DHT22;32291;52.010;4.446;2022-11-15T06:15:23;10.20;99.90
47521;DHT22;32291;52.010;4.446;2022-11-15T06:16:30;10.20;99.90
47521;DHT22;32291;52.010;4.446;2022-11-15T06:17:37;10.20;99.90
47521;DHT22;32291;52.010;4.446;2022-11-15T06:18:44;10.10;99.90
47521;DHT22;32291;52.010;4.446;2022-11-15T06:19:51;10.10;99.90
47521;DHT22;32291;52.010;4.446;2022-11-15T06:20:59;10.10;99.90
47521;DHT22;32291;52.010;4.446;2022-11-15T06:22:07;10.10;99.90
47521;DHT22;32291;52.010;4.446;2022-11-15T06:23:15;10.00;99.90
47521;DHT22;32291;52.010;4.446;2022-11-15T06:24:18;10.00;99.90
47521;DHT22;32291;52.010;4.446;2022-11-15T06:25:26;10.30;99.90
47521;DHT22;32291;52.010;4.446;2022-11-15T06:26:35;10.00;99.90
47521;DHT22;32291;52.010;4.446;2022-11-15T06:27:42;10.00;99.90
47521;DHT22;32291;52.010;4.446;2022-11-15T06:28:49;10.00;99.90
47521;DHT22;32291;52.010;4.446;2022-11-15T06:29:56;9.90;99.90
47521;DHT22;32291;52.010;4.446;2022-11-15T06:32:09;9.90;99.90
47521;DHT22;32291;52.010;4.446;2022-11-15T06:33:16;9.90;99.90
47521;DHT22;32291;52.010;4.446;2022-11-15T06:34:23;9.90;99.90
47521;DHT22;32291;52.010;4.446;2022-11-15T06:35:33;9.80;99.90
47521;DHT22;32291;52.010;4.446;2022-11-15T06:36:42;9.80;99.90
47521;DHT22;32291;52.010;4.446;2022-11-15T06:37:49;9.80;99.90
47521;DHT22;32291;52.010;4.446;2022-11-15T06:38:56;9.80;99.90
47521;DHT22;32291;52.010;4.446;2022-11-15T06:40:05;10.00;99.90
47521;DHT22;32291;52.010;4.446;2022-11-15T06:41:14;9.70;99.90
47521;DHT22;32291;52.010;4.446;2022-11-15T06:42:23;9.70;99.90
47521;DHT22;32291;52.010;4.446;2022-11-15T06:43:25;9.60;99.90
47521;DHT22;32291;52.010;4.446;2022-11-15T06:44:32;9.60;99.90
47521;DHT22;32291;52.010;4.446;2022-11-15T06:45:40;9.60;99.90
47521;DHT22;32291;52.010;4.446;2022-11-15T06:46:47;9.60;99.90
47521;DHT22;32291;52.010;4.446;2022-11-15T06:47:54;9.60;99.90
47521;DHT22;32291;52.010;4.446;2022-11-15T06:49:01;9.60;99.90
47521;DHT22;32291;52.010;4.446;2022-11-15T06:50:09;9.50;99.90
47521;DHT22;32291;52.010;4.446;2022-11-15T06:51:16;9.50;99.90
47521;DHT22;32291;52.010;4.446;2022-11-15T06:52:23;9.50;99.90
47521;DHT22;32291;52.010;4.446;2022-11-15T06:53:30;9.50;99.90
47521;DHT22;32291;52.010;4.446;2022-11-15T06:54:38;9.50;99.90
47521;DHT22;32291;52.010;4.446;2022-11-15T06:55:41;9.50;99.90
47521;DHT22;32291;52.010;4.446;2022-11-15T06:56:48;9.50;99.90
47521;DHT22;32291;52.010;4.446;2022-11-15T06:57:52;9.40;99.90
47521;DHT22;32291;52.010;4.446;2022-11-15T06:58:55;9.50;99.90
47521;DHT22;32291;52.010;4.446;2022-11-15T07:00:04;9.50;99.90
47521;DHT22;32291;52.010;4.446;2022-11-15T07:01:13;9.50;99.90
47521;DHT22;32291;52.010;4.446;2022-11-15T07:02:15;9.50;99.90
47521;DHT22;32291;52.010;4.446;2022-11-15T07:03:22;9.50;99.90
47521;DHT22;32291;52.010;4.446;2022-11-15T07:04:29;9.50;99.90
47521;DHT22;32291;52.010;4.446;2022-11-15T07:05:37;9.50;99.90
47521;DHT22;32291;52.010;4.446;2022-11-15T07:06:46;9.50;99.90
47521;DHT22;32291;52.010;4.446;2022-11-15T07:07:56;9.50;99.90
47521;DHT22;32291;52.010;4.446;2022-11-15T07:09:02;9.60;99.90
47521;DHT22;32291;52.010;4.446;2022-11-15T07:10:09;9.60;99.90
47521;DHT22;32291;52.010;4.446;2022-11-15T07:11:12;9.50;99.90
47521;DHT22;32291;52.010;4.446;2022-11-15T07:12:15;9.60;99.90
47521;DHT22;32291;52.010;4.446;2022-11-15T07:13:17;9.60;99.90
47521;DHT22;32291;52.010;4.446;2022-11-15T07:14:24;9.60;99.90
47521;DHT22;32291;52.010;4.446;2022-11-15T07:15:31;9.60;99.90
47521;DHT22;32291;52.010;4.446;2022-11-15T07:16:38;9.60;99.90
47521;DHT22;32291;52.010;4.446;2022-11-15T07:17:46;9.60;99.90
47521;DHT22;32291;52.010;4.446;2022-11-15T07:18:53;9.60;99.90
47521;DHT22;32291;52.010;4.446;2022-11-15T07:20:00;9.70;99.90
47521;DHT22;32291;52.010;4.446;2022-11-15T07:21:04;9.60;99.90
47521;DHT22;32291;52.010;4.446;2022-11-15T07:22:13;9.60;99.90
47521;DHT22;32291;52.010;4.446;2022-11-15T07:23:23;9.70;99.90
47521;DHT22;32291;52.010;4.446;2022-11-15T07:24:35;9.70;99.90
47521;DHT22;32291;52.010;4.446;2022-11-15T07:25:48;9.80;99.90
47521;DHT22;32291;52.010;4.446;2022-11-15T07:26:58;9.90;99.90
47521;DHT22;32291;52.010;4.446;2022-11-15T07:28:11;9.90;99.90
47521;DHT22;32291;52.010;4.446;2022-11-15T07:29:16;9.90;99.90
47521;DHT22;32291;52.010;4.446;2022-11-15T07:30:19;9.90;99.90
47521;DHT22;32291;52.010;4.446;2022-11-15T07:31:27;9.90;99.90
47521;DHT22;32291;52.010;4.446;2022-11-15T07:32:38;9.90;99.90
47521;DHT22;32291;52.010;4.446;2022-11-15T07:33:46;9.90;99.90
47521;DHT22;32291;52.010;4.446;2022-11-15T07:34:53;9.90;99.90
47521;DHT22;32291;52.010;4.446;2022-11-15T07:36:02;9.90;99.90
47521;DHT22;32291;52.010;4.446;2022-11-15T07:37:06;9.90;99.90
47521;DHT22;32291;52.010;4.446;2022-11-15T07:38:14;9.90;99.90
47521;DHT22;32291;52.010;4.446;2022-11-15T07:39:17;9.90;99.90
47521;DHT22;32291;52.010;4.446;2022-11-15T07:40:19;10.00;99.90
47521;DHT22;32291;52.010;4.446;2022-11-15T07:41:28;10.00;99.90
47521;DHT22;32291;52.010;4.446;2022-11-15T07:42:36;9.90;99.90
47521;DHT22;32291;52.010;4.446;2022-11-15T07:44:02;9.90;99.90
47521;DHT22;32291;52.010;4.446;2022-11-15T07:45:09;9.90;99.90
47521;DHT22;32291;52.010;4.446;2022-11-15T07:46:11;9.90;99.90
47521;DHT22;32291;52.010;4.446;2022-11-15T07:47:19;9.90;99.90
47521;DHT22;32291;52.010;4.446;2022-11-15T07:48:26;9.90;99.90
47521;DHT22;32291;52.010;4.446;2022-11-15T07:49:33;9.80;99.90
47521;DHT22;32291;52.010;4.446;2022-11-15T07:50:41;9.80;99.90
47521;DHT22;32291;52.010;4.446;2022-11-15T07:51:44;9.90;99.90
47521;DHT22;32291;52.010;4.446;2022-11-15T07:52:57;9.80;99.90
47521;DHT22;32291;52.010;4.446;2022-11-15T07:54:06;9.90;99.90
47521;DHT22;32291;52.010;4.446;2022-11-15T07:55:13;9.80;99.90
47521;DHT22;32291;52.010;4.446;2022-11-15T07:56:15;9.80;99.90
47521;DHT22;32291;52.010;4.446;2022-11-15T07:57:18;9.80;99.90
47521;DHT22;32291;52.010;4.446;2022-11-15T07:58:25;9.80;99.90
47521;DHT22;32291;52.010;4.446;2022-11-15T07:59:32;9.90;99.90
47521;DHT22;32291;52.010;4.446;2022-11-15T08:00:37;9.90;99.90